createdAt,value
2023-03-18T00:00:16.574Z,99751.31
2023-03-18T00:02:45.343Z,99756.31
2023-03-18T00:05:14.643Z,99748.44
2023-03-18T00:07:43.207Z,99750.13
2023-03-18T00:10:12.932Z,99752.34
2023-03-18T00:12:43.255Z,99748.97
2023-03-18T00:15:13.827Z,99748.31
2023-03-18T00:17:42.442Z,99743.47
2023-03-18T00:20:13.137Z,99752.22
2023-03-18T00:22:42.487Z,99749.88
2023-03-18T00:25:13.310Z,99747.88
2023-03-18T00:27:43.026Z,99742.84
2023-03-18T00:30:12.748Z,99746.53
2023-03-18T00:32:41.582Z,99746.53
2023-03-18T00:35:10.898Z,99744.19
2023-03-18T00:37:39.992Z,99748.41
2023-03-18T00:40:17.259Z,99749.88
2023-03-18T00:42:50.722Z,99747.88
2023-03-18T00:45:19.030Z,99748.72
2023-03-18T00:47:48.606Z,99750.88
2023-03-18T00:50:17.145Z,99757.59
2023-03-18T00:52:45.370Z,99758.44
2023-03-18T00:55:14.202Z,99745.81
2023-03-18T00:57:42.416Z,99755.22
2023-03-18T01:00:17.076Z,99747.81
2023-03-18T01:02:45.632Z,99735.56
2023-03-18T01:05:14.339Z,99743.47
2023-03-18T01:07:42.707Z,99742.78
2023-03-18T01:10:13.085Z,99746.66
2023-03-18T01:12:41.753Z,99742.78
2023-03-18T01:15:13.577Z,99744.81
2023-03-18T01:17:42.752Z,99744.81
2023-03-18T01:20:13.005Z,99749.34
2023-03-18T01:22:42.382Z,99748.84
2023-03-18T01:25:11.791Z,99759.25
2023-03-18T01:27:40.761Z,99754.72
2023-03-18T01:30:10.777Z,99749.16
2023-03-18T01:32:40.353Z,99752.88
2023-03-18T01:35:09.506Z,99746.47
2023-03-18T01:37:37.805Z,99746.47
2023-03-18T01:40:08.341Z,99750.84
2023-03-18T01:42:37.188Z,99743.47
2023-03-18T01:45:16.216Z,99749.66
2023-03-18T01:47:46.642Z,99750.81
2023-03-18T01:50:18.675Z,99759.06
2023-03-18T01:52:49.143Z,99745.44
2023-03-18T01:55:20.449Z,99746.47
2023-03-18T01:57:50.560Z,99743.44
2023-03-18T02:00:21.665Z,99750.81
2023-03-18T02:02:54.073Z,99752.16
2023-03-18T02:07:52.727Z,99744.28
2023-03-18T02:10:24.028Z,99748.63
2023-03-18T02:12:58.288Z,99747.09
2023-03-18T02:15:28.153Z,99747.94
2023-03-18T02:18:05.295Z,99743.78
2023-03-18T02:20:46.009Z,99745.09
2023-03-18T02:23:37.884Z,99750.28
2023-03-18T02:26:14.779Z,99741.72
2023-03-18T02:28:45.493Z,99745.94
2023-03-18T02:31:18.218Z,99749.66
2023-03-18T02:33:48.467Z,99747.09
2023-03-18T02:36:20.654Z,99755.84
2023-03-18T02:38:49.202Z,99739.22
2023-03-18T02:41:18.469Z,99739.72
2023-03-18T02:43:49.172Z,99745.09
2023-03-18T02:46:31.320Z,99744.28
2023-03-18T02:49:01.598Z,99752.50
2023-03-18T02:51:30.725Z,99735.00
2023-03-18T02:54:04.271Z,99744.09
2023-03-18T02:56:32.802Z,99744.72
2023-03-18T02:59:02.566Z,99741.91
2023-03-18T03:01:30.668Z,99750.47
2023-03-18T03:03:58.767Z,99741.41
2023-03-18T03:06:26.990Z,99743.25
2023-03-18T03:08:55.557Z,99751.50
2023-03-18T03:11:24.231Z,99750.47
2023-03-18T03:13:52.197Z,99748.31
2023-03-18T03:16:22.868Z,99750.31
2023-03-18T03:18:51.596Z,99750.16
2023-03-18T03:21:19.741Z,99749.47
2023-03-18T03:23:49.449Z,99758.38
2023-03-18T03:26:18.283Z,99755.22
2023-03-18T03:28:46.595Z,99757.91
2023-03-18T03:31:15.182Z,99763.63
2023-03-18T03:33:45.652Z,99758.25
2023-03-18T03:36:16.560Z,99762.59
2023-03-18T03:38:45.095Z,99761.44
2023-03-18T03:41:15.952Z,99767.00
2023-03-18T03:43:45.388Z,99764.13
2023-03-18T03:46:13.616Z,99770.34
2023-03-18T03:48:41.702Z,99766.66
2023-03-18T03:51:11.173Z,99768.50
2023-03-18T03:53:40.934Z,99773.03
2023-03-18T03:56:11.580Z,99772.03
2023-03-18T03:58:39.609Z,99776.41
2023-03-18T04:01:08.802Z,99775.41
2023-03-18T04:03:36.810Z,99779.94
2023-03-18T04:06:05.015Z,99780.59
2023-03-18T04:08:34.689Z,99782.94
2023-03-18T04:11:04.678Z,99785.78
2023-03-18T04:13:33.368Z,99781.09
2023-03-18T04:16:01.825Z,99787.13
2023-03-18T04:18:29.821Z,99792.16
2023-03-18T04:20:57.846Z,99792.81
2023-03-18T04:23:25.809Z,99798.88
2023-03-18T04:25:55.172Z,99804.59
2023-03-18T04:28:23.465Z,99810.47
2023-03-18T04:30:51.815Z,99805.91
2023-03-18T04:33:22.616Z,99808.28
2023-03-18T04:35:51.107Z,99810.09
2023-03-18T04:38:19.515Z,99803.72
2023-03-18T04:40:49.016Z,99807.91
2023-03-18T04:43:18.506Z,99802.72
2023-03-18T04:45:46.506Z,99814.31
2023-03-18T04:48:14.529Z,99813.97
2023-03-18T04:50:43.869Z,99807.91
2023-03-18T04:53:12.160Z,99814.81
2023-03-18T04:55:41.500Z,99819.34
2023-03-18T04:58:09.463Z,99817.66
2023-03-18T05:00:38.996Z,99817.66
2023-03-18T05:03:07.462Z,99817.81
2023-03-18T05:05:38.439Z,99817.66
2023-03-18T05:08:07.982Z,99817.00
2023-03-18T05:10:36.393Z,99822.38
2023-03-18T05:13:04.963Z,99815.97
2023-03-18T05:15:33.322Z,99836.47
2023-03-18T05:18:04.736Z,99828.91
2023-03-18T05:20:32.969Z,99828.09
2023-03-18T05:23:01.280Z,99841.38
2023-03-18T05:25:29.402Z,99840.53
2023-03-18T05:27:57.896Z,99832.81
2023-03-18T05:30:26.154Z,99833.97
2023-03-18T05:32:55.121Z,99841.19
2023-03-18T05:35:24.783Z,99841.19
2023-03-18T05:37:53.246Z,99836.00
2023-03-18T05:40:21.890Z,99836.97
2023-03-18T05:42:56.152Z,99842.88
2023-03-18T05:45:25.534Z,99841.19
2023-03-18T05:47:53.980Z,99842.03
2023-03-18T05:50:31.672Z,99850.28
2023-03-18T05:52:59.950Z,99849.06
2023-03-18T05:55:30.354Z,99848.25
2023-03-18T05:57:59.214Z,99838.50
2023-03-18T06:00:28.828Z,99847.41
2023-03-18T06:02:57.572Z,99851.13
2023-03-18T06:05:26.322Z,99855.28
2023-03-18T06:07:56.898Z,99864.06
2023-03-18T06:10:26.681Z,99864.22
2023-03-18T06:12:56.505Z,99868.78
2023-03-18T06:15:25.832Z,99871.63
2023-03-18T06:17:53.891Z,99867.09
2023-03-18T06:20:23.632Z,99873.47
2023-03-18T06:22:51.946Z,99872.31
2023-03-18T06:25:22.808Z,99877.50
2023-03-18T06:27:52.298Z,99885.75
2023-03-18T06:30:20.756Z,99881.53
2023-03-18T06:32:48.966Z,99889.59
2023-03-18T06:35:17.430Z,99888.63
2023-03-18T06:37:45.672Z,99884.06
2023-03-18T06:40:14.968Z,99886.25
2023-03-18T06:42:45.145Z,99886.25
2023-03-18T06:45:13.714Z,99886.44
2023-03-18T06:47:43.064Z,99889.13
2023-03-18T06:50:13.830Z,99883.56
2023-03-18T06:52:42.439Z,99884.72
2023-03-18T06:55:11.556Z,99890.97
2023-03-18T06:57:40.797Z,99899.03
2023-03-18T07:00:12.201Z,99897.19
2023-03-18T07:02:40.279Z,99909.44
2023-03-18T07:05:09.288Z,99916.66
2023-03-18T07:07:37.790Z,99917.00
2023-03-18T07:10:06.616Z,99910.78
2023-03-18T07:12:34.912Z,99919.81
2023-03-18T07:15:04.084Z,99927.56
2023-03-18T07:17:33.598Z,99928.91
2023-03-18T07:20:01.673Z,99928.03
2023-03-18T07:22:30.044Z,99929.91
2023-03-18T07:24:58.158Z,99937.59
2023-03-18T07:27:26.272Z,99939.13
2023-03-18T07:29:54.395Z,99944.31
2023-03-18T07:32:22.530Z,99938.88
2023-03-18T07:34:52.060Z,99943.38
2023-03-18T07:37:20.691Z,99952.22
2023-03-18T07:39:48.935Z,99955.53
2023-03-18T07:42:16.865Z,99960.72
2023-03-18T07:44:44.836Z,99964.53
2023-03-18T07:47:14.659Z,99966.91
2023-03-18T07:49:42.886Z,99971.63
2023-03-18T07:52:12.597Z,99982.22
2023-03-18T07:54:40.530Z,99983.59
2023-03-18T07:57:08.547Z,99979.41
2023-03-18T07:59:37.597Z,99980.91
2023-03-18T08:02:08.261Z,99990.00
2023-03-18T08:04:37.767Z,99989.00
2023-03-18T08:07:06.704Z,99992.22
2023-03-18T08:09:36.734Z,100001.50
2023-03-18T08:12:04.928Z,100010.09
2023-03-18T08:14:33.164Z,100008.28
2023-03-18T08:17:03.735Z,100005.75
2023-03-18T08:19:32.067Z,100017.56
2023-03-18T08:22:00.810Z,100017.56
2023-03-18T08:24:29.076Z,100018.56
2023-03-18T08:26:59.066Z,100021.78
2023-03-18T08:29:27.243Z,100025.31
2023-03-18T08:31:55.510Z,100028.34
2023-03-18T08:34:23.790Z,100025.00
2023-03-18T08:36:52.387Z,100033.06
2023-03-18T08:39:21.181Z,100041.13
2023-03-18T08:41:49.294Z,100036.44
2023-03-18T08:44:18.736Z,100048.19
2023-03-18T08:46:46.850Z,100051.22
2023-03-18T08:49:15.647Z,100049.84
2023-03-18T08:51:45.036Z,100051.53
2023-03-18T08:54:13.705Z,100052.50
2023-03-18T08:56:41.780Z,100067.78
2023-03-18T08:59:10.129Z,100053.81
2023-03-18T09:01:40.508Z,100062.53
2023-03-18T09:04:09.941Z,100064.22
2023-03-18T09:06:38.051Z,100072.16
2023-03-18T09:09:06.027Z,100081.41
2023-03-18T09:11:33.971Z,100081.41
2023-03-18T09:14:02.121Z,100075.69
2023-03-18T09:16:30.156Z,100083.31
2023-03-18T09:18:59.866Z,100079.16
2023-03-18T09:21:28.516Z,100082.50
2023-03-18T09:23:56.656Z,100087.03
2023-03-18T09:26:24.879Z,100089.94
2023-03-18T09:28:53.279Z,100090.28
2023-03-18T09:31:21.380Z,100088.59
2023-03-18T09:33:49.520Z,100095.31
2023-03-18T09:36:19.406Z,100099.81
2023-03-18T09:38:47.354Z,100094.25
2023-03-18T09:41:31.120Z,100092.88
2023-03-18T09:44:13.006Z,100095.25
2023-03-18T09:46:54.904Z,100108.19
2023-03-18T09:49:50.165Z,100115.13
2023-03-18T09:52:26.497Z,100111.75
2023-03-18T09:55:02.739Z,100119.16
2023-03-18T09:57:34.980Z,100123.53
2023-03-18T10:00:09.270Z,100121.03
2023-03-18T10:02:41.900Z,100120.19
2023-03-18T10:05:16.845Z,100137.50
2023-03-18T10:07:51.823Z,100135.69
2023-03-18T10:10:25.706Z,100134.34
2023-03-18T10:13:03.540Z,100153.19
2023-03-18T10:15:36.023Z,100156.91
2023-03-18T10:18:11.043Z,100155.19
2023-03-18T10:20:56.630Z,100156.91
2023-03-18T10:23:40.213Z,100174.72
2023-03-18T10:26:22.094Z,100175.91
2023-03-18T10:29:10.747Z,100171.03
2023-03-18T10:34:48.889Z,100167.66
2023-03-18T10:37:42.359Z,100171.69
2023-03-18T10:40:20.328Z,100178.94
2023-03-18T10:42:54.642Z,100180.41
2023-03-18T10:45:26.308Z,100176.09
2023-03-18T10:48:06.113Z,100181.13
2023-03-18T10:50:38.635Z,100172.72
2023-03-18T10:53:19.938Z,100175.56
2023-03-18T10:56:01.262Z,100182.97
2023-03-18T10:58:31.479Z,100194.09
2023-03-18T11:01:10.534Z,100186.84
2023-03-18T11:03:49.504Z,100192.22
2023-03-18T11:06:31.536Z,100195.91
2023-03-18T11:30:53.692Z,100225.84
2023-03-18T11:33:27.135Z,100221.81
2023-03-18T11:35:56.976Z,100232.44
2023-03-18T11:38:29.563Z,100239.31
2023-03-18T11:41:09.398Z,100223.19
2023-03-18T11:43:42.199Z,100222.16
2023-03-18T11:46:13.660Z,100224.53
2023-03-18T11:48:44.656Z,100236.81
2023-03-18T11:54:49.358Z,100235.47
2023-03-18T11:57:26.717Z,100237.31
2023-03-18T12:00:17.833Z,100243.53
2023-03-18T12:03:24.765Z,100242.31
2023-03-18T12:06:07.289Z,100248.03
2023-03-18T12:08:48.269Z,100252.06
2023-03-18T12:11:25.483Z,100250.84
2023-03-18T12:14:05.764Z,100258.59
2023-03-18T12:16:45.510Z,100256.75
2023-03-18T12:19:45.178Z,100248.97
2023-03-18T12:22:43.043Z,100260.72
2023-03-18T12:25:40.366Z,100264.72
2023-03-18T12:28:31.310Z,100267.78
2023-03-18T12:31:33.719Z,100267.84
2023-03-18T12:34:08.472Z,100280.50
2023-03-18T12:37:06.525Z,100286.09
2023-03-18T12:40:01.171Z,100285.44
2023-03-18T12:42:51.188Z,100298.41
2023-03-18T12:45:28.423Z,100291.22
2023-03-18T13:06:16.853Z,100325.53
2023-03-18T13:09:28.024Z,100325.22
2023-03-18T13:12:03.876Z,100326.34
2023-03-18T13:14:45.070Z,100327.31
2023-03-18T13:17:27.001Z,100328.16
2023-03-18T13:20:04.882Z,100337.03
2023-03-18T13:23:06.618Z,100331.13
2023-03-18T13:25:59.669Z,100327.31
2023-03-18T13:29:16.297Z,100329.69
2023-03-18T13:31:56.977Z,100328.00
2023-03-18T13:34:50.627Z,100330.53
2023-03-18T13:37:36.157Z,100329.16
2023-03-18T13:40:23.782Z,100345.69
2023-03-18T13:43:00.378Z,100337.25
2023-03-18T13:45:32.956Z,100341.63
2023-03-18T13:48:10.375Z,100341.31
2023-03-18T13:50:42.813Z,100327.19
2023-03-18T13:53:26.648Z,100330.91
2023-03-18T13:56:12.491Z,100335.00
2023-03-18T13:58:55.845Z,100333.97
2023-03-18T14:01:40.333Z,100333.38
2023-03-18T14:04:32.953Z,100329.88
2023-03-18T14:07:20.378Z,100331.63
2023-03-18T14:09:54.175Z,100331.13
2023-03-18T14:12:39.848Z,100321.25
2023-03-18T14:15:49.865Z,100327.16
2023-03-18T14:18:28.028Z,100318.19
2023-03-18T14:21:01.871Z,100331.59
2023-03-18T14:23:55.672Z,100331.84
2023-03-18T14:27:12.705Z,100334.72
2023-03-18T14:30:08.402Z,100344.63
2023-03-18T14:32:51.640Z,100347.91
2023-03-18T14:41:33.832Z,100339.91
2023-03-18T14:44:15.668Z,100344.31
2023-03-18T14:46:53.416Z,100336.75
2023-03-18T14:50:09.482Z,100339.16
2023-03-18T14:52:41.511Z,100334.63
2023-03-18T14:55:24.831Z,100339.50
2023-03-18T14:57:53.702Z,100343.41
2023-03-18T15:03:46.942Z,100336.81
2023-03-18T15:06:24.690Z,100343.38
2023-03-18T15:09:12.582Z,100344.00
2023-03-18T15:12:00.991Z,100350.94
2023-03-18T15:14:32.641Z,100352.44
2023-03-18T15:17:06.992Z,100344.34
2023-03-18T15:19:42.503Z,100347.88
2023-03-18T15:22:29.552Z,100347.03
2023-03-18T15:25:03.704Z,100352.25
2023-03-18T15:27:35.200Z,100361.84
2023-03-18T15:30:10.868Z,100374.66
2023-03-18T15:32:52.280Z,100373.63
2023-03-18T15:35:39.085Z,100381.78
2023-03-18T15:38:20.082Z,100382.16
2023-03-18T15:40:55.290Z,100372.06
2023-03-18T15:43:42.814Z,100378.78
2023-03-18T15:46:20.276Z,100380.81
2023-03-18T15:51:59.028Z,100385.88
2023-03-18T15:54:31.080Z,100390.41
2023-03-18T15:57:21.757Z,100401.69
2023-03-18T15:59:54.568Z,100395.97
2023-03-18T16:02:26.533Z,100394.28
2023-03-18T16:08:19.401Z,100410.56
2023-03-18T16:10:51.802Z,100416.41
2023-03-18T16:13:26.779Z,100413.69
2023-03-18T16:16:02.061Z,100420.75
2023-03-18T16:18:32.793Z,100415.97
2023-03-18T16:21:18.842Z,100417.41
2023-03-18T16:24:03.822Z,100417.09
2023-03-18T16:29:51.933Z,100406.47
2023-03-18T16:32:37.017Z,100410.09
2023-03-18T16:35:15.512Z,100410.19
2023-03-18T16:37:47.380Z,100413.19
2023-03-18T16:40:37.952Z,100409.69
2023-03-18T16:43:59.629Z,100413.47
2023-03-18T16:46:31.332Z,100421.44
2023-03-18T16:49:03.211Z,100429.56
2023-03-18T16:51:43.146Z,100428.31
2023-03-18T16:54:45.964Z,100418.13
2023-03-18T16:57:20.418Z,100425.88
2023-03-18T16:59:56.813Z,100421.06
2023-03-18T17:02:36.516Z,100422.06
2023-03-18T17:05:24.215Z,100426.41
2023-03-18T17:07:55.837Z,100433.19
2023-03-18T17:22:07.111Z,100448.69
2023-03-18T17:30:54.148Z,100462.44
2023-03-18T17:33:27.464Z,100464.41
2023-03-18T17:35:57.602Z,100465.13
2023-03-18T17:38:26.352Z,100466.97
2023-03-18T17:40:56.328Z,100473.47
2023-03-18T17:43:29.289Z,100478.34
2023-03-18T17:46:10.832Z,100478.94
2023-03-18T17:48:52.818Z,100482.78
2023-03-18T17:51:25.694Z,100486.59
2023-03-18T17:53:59.293Z,100499.72
2023-03-18T17:56:28.392Z,100499.59
2023-03-18T17:59:08.445Z,100502.56
2023-03-18T18:01:43.709Z,100511.50
2023-03-18T18:04:16.828Z,100502.56
2023-03-18T18:06:49.449Z,100509.50
2023-03-18T18:09:19.554Z,100505.81
2023-03-18T18:11:51.272Z,100512.59
2023-03-18T18:14:23.526Z,100512.44
2023-03-18T18:16:56.449Z,100516.50
2023-03-18T18:19:27.602Z,100523.56
2023-03-18T18:21:57.580Z,100527.09
2023-03-18T18:24:33.871Z,100535.88
2023-03-18T18:27:04.688Z,100532.19
2023-03-18T18:29:35.254Z,100534.03
2023-03-18T18:32:05.702Z,100544.75
2023-03-18T18:34:37.296Z,100546.75
2023-03-18T18:37:07.645Z,100557.50
2023-03-18T18:39:37.188Z,100579.25
2023-03-18T18:42:07.879Z,100569.09
2023-03-18T18:44:36.457Z,100563.47
2023-03-18T18:47:19.145Z,100567.88
2023-03-18T18:49:47.970Z,100575.50
2023-03-18T18:52:16.154Z,100585.13
2023-03-18T18:54:46.407Z,100592.59
2023-03-18T18:57:26.892Z,100586.72
2023-03-18T18:59:55.318Z,100588.66
2023-03-18T19:02:31.743Z,100580.03
2023-03-18T19:05:02.440Z,100593.75
2023-03-18T19:07:30.730Z,100598.56
2023-03-18T19:09:59.004Z,100605.91
2023-03-18T19:12:27.759Z,100592.22
2023-03-18T19:14:56.000Z,100617.59
2023-03-18T19:17:24.378Z,100618.31
2023-03-18T19:19:54.770Z,100616.66
2023-03-18T19:22:23.055Z,100625.19
2023-03-18T19:24:51.345Z,100642.56
2023-03-18T19:27:24.568Z,100647.19
2023-03-18T19:29:54.460Z,100654.66
2023-03-18T19:32:24.254Z,100663.84
2023-03-18T19:34:56.290Z,100657.91
2023-03-18T19:37:27.380Z,100659.75
2023-03-18T19:39:56.056Z,100665.81
2023-03-18T19:42:24.351Z,100675.25
2023-03-18T19:44:52.781Z,100682.72
2023-03-18T19:47:24.757Z,100684.56
2023-03-18T19:49:55.644Z,100691.72
2023-03-18T19:52:25.733Z,100688.19
2023-03-18T19:54:54.753Z,100685.53
2023-03-18T19:57:26.098Z,100696.38
2023-03-18T19:59:56.463Z,100698.38
2023-03-18T20:02:26.003Z,100697.38
2023-03-18T20:04:57.700Z,100688.19
2023-03-18T20:07:27.671Z,100715.16
2023-03-18T20:09:56.154Z,100709.78
2023-03-18T20:12:26.825Z,100698.38
2023-03-18T20:14:54.993Z,100699.47
2023-03-18T20:17:37.586Z,100714.72
2023-03-18T20:20:14.612Z,100716.69
2023-03-18T20:22:46.280Z,100721.56
2023-03-18T20:25:22.793Z,100724.41
2023-03-18T20:27:53.663Z,100727.22
2023-03-18T20:30:27.833Z,100733.56
2023-03-18T20:32:56.310Z,100728.72
2023-03-18T20:35:30.354Z,100736.34
2023-03-18T20:38:01.201Z,100742.13
2023-03-18T20:40:31.320Z,100757.94
2023-03-18T20:42:59.829Z,100758.19
2023-03-18T20:45:29.285Z,100772.31
2023-03-18T20:47:58.103Z,100778.66
2023-03-18T20:50:29.896Z,100775.00
2023-03-18T20:52:58.788Z,100782.19
2023-03-18T20:55:29.309Z,100786.69
2023-03-18T20:57:57.571Z,100805.16
2023-03-18T21:00:27.565Z,100801.78
2023-03-18T21:02:58.105Z,100795.44
2023-03-18T21:05:28.642Z,100798.81
2023-03-18T21:07:57.105Z,100809.28
2023-03-18T21:10:28.520Z,100823.53
2023-03-18T21:12:56.828Z,100826.34
2023-03-18T21:15:27.286Z,100816.63
2023-03-18T21:17:59.910Z,100837.31
2023-03-18T21:20:31.624Z,100821.63
2023-03-18T21:22:59.770Z,100819.81
2023-03-18T21:25:29.714Z,100829.34
2023-03-18T21:27:58.129Z,100832.28
2023-03-18T21:30:26.198Z,100839.63
2023-03-18T21:32:54.221Z,100840.41
2023-03-18T21:35:24.525Z,100844.75
2023-03-18T21:37:54.370Z,100861.13
2023-03-18T21:40:24.328Z,100859.38
2023-03-18T21:42:53.207Z,100859.13
2023-03-18T21:45:24.317Z,100856.00
2023-03-18T21:47:53.615Z,100851.50
2023-03-18T21:50:24.247Z,100856.16
2023-03-18T21:52:54.445Z,100848.22
2023-03-18T21:55:23.321Z,100844.97
2023-03-18T21:57:53.127Z,100856.53
2023-03-18T22:00:22.640Z,100864.09
2023-03-18T22:02:51.241Z,100859.00
2023-03-18T22:05:22.192Z,100860.97
2023-03-18T22:07:51.077Z,100862.66
2023-03-18T22:10:24.896Z,100871.66
2023-03-18T22:12:53.388Z,100870.31
2023-03-18T22:15:35.969Z,100877.97
2023-03-18T22:18:04.968Z,100884.91
2023-03-18T22:20:35.478Z,100891.13
2023-03-18T22:23:11.945Z,100890.03
2023-03-18T22:25:42.369Z,100893.16
2023-03-18T22:28:12.862Z,100892.78
2023-03-18T22:30:43.749Z,100893.25
2023-03-18T22:33:23.462Z,100902.22
2023-03-18T22:35:52.173Z,100902.22
2023-03-18T22:38:22.987Z,100899.56
2023-03-18T22:41:11.863Z,100897.00
2023-03-18T22:43:40.143Z,100906.03
2023-03-18T22:48:58.548Z,100914.50
2023-03-18T22:51:32.236Z,100906.09
2023-03-18T22:54:01.907Z,100908.22
2023-03-18T22:56:45.680Z,100913.34
2023-03-18T22:59:14.906Z,100912.13
2023-03-18T23:01:48.195Z,100912.72
2023-03-18T23:04:19.715Z,100918.31
2023-03-18T23:06:49.517Z,100924.03
2023-03-18T23:12:41.458Z,100930.13
2023-03-18T23:15:42.465Z,100931.38
2023-03-18T23:21:27.318Z,100926.38
2023-03-18T23:32:30.802Z,100931.59
2023-03-18T23:34:59.493Z,100940.81
2023-03-18T23:37:27.952Z,100940.25
2023-03-18T23:39:58.560Z,100962.72
2023-03-18T23:42:27.342Z,100957.63
2023-03-18T23:45:02.672Z,100969.38
2023-03-18T23:47:32.901Z,100972.78
2023-03-18T23:50:02.797Z,100957.97
2023-03-18T23:52:33.040Z,100972.19
2023-03-18T23:55:04.089Z,100982.03
2023-03-18T23:57:32.853Z,100976.69
